メインページ
METAR-TAF:

METAR-TAF

空港 :

マシュハド国際空港

マシュハド, イラン

緯度: 36-16N, 経度: 059-38E, 海抜: 989m

現時点の気象観測

当レポートは13分前の07:30(UTC)に作成
北東の風 4kt
気温 14°C
湿度 55%
気圧 1017 hPa
視程10km以上
1,500メートル以下は雲なし、積乱雲なし

METAR: OIMM 240730Z 04004KT CAVOK 14/05 Q1016 A3002

時間: 12:13 (07:43 UTC)

予報

当レポートは2時間13分前の05:30(UTC)に作成
予報は24日の 06時(UTC)から 25日の 12時(UTC)まで有効
北/北東の風 8kt
視程: 7000m
高度3500ftの雲はほとんどない
高度10000ftの雲は散在している
24日の 09時(UTC)から 24日の 15時(UTC)まで一時的に
南/南西の風 14kt
高度3500ftの雲はほとんどない, 積乱雲.
高度4000ftの雲は散在している
高度10000ftの雲は散在している
確率 40%
24日の 09時(UTC)から 24日の 15時(UTC)まで
視程: 5000m
確率 40%
25日の 00時(UTC)から 25日の 06時(UTC)まで
視程: 3000m
25日の 10時(UTC)から 25日の 18時(UTC)まで一時的に
の風 14kt、最大24ktの突風を伴う
高度3000ftの雲はほとんどない, 積乱雲.
高度3500ftの雲は散在している
高度9000ftの千切れ雲あり
確率 40%
25日の 10時(UTC)から 25日の 12時(UTC)まで
視程: 4000m

TAF: OIMM 240530Z 2406/2512 03008KT 7000 FEW035 SCT100 TEMPO 2409/2415 20014KT FEW035CB SCT040 SCT100 PROB40 2409/2415 5000 RA PROB40 2500/2506 3000 BR TEMPO 2510/2518 19014G24KT FEW030CB SCT035 BKN090 PROB40 2510/2512 4000 RA

4,000以上の空港の気象観測と天気予報(METAR報とTAF報)

利用可能な観測所は地図上に黄色い丸と赤い丸で示す。

丸の上にカーソルを重ねると観測所名を参照できる。

次にクリックすると気象観測と天気予報を参照できる。

マップの切り替え:黒色「×」印の緑ボタンをクリックして拡大、「-」印の緑ボタンをクリックして縮小、緑色の三角印をクリックして隣りの地図に切り替え


METAR-TAF: